Time,TemperatureF,DewpointF,PressureIn,WindDirection,WindDirectionDegrees,WindSpeedMPH,WindSpeedGustMPH,Humidity,HourlyPrecipIn,Conditions,Clouds,dailyrainin,SolarRadiationWatts/m^2,SoftwareType,DateUTC
2013-10-25 00:04:00,33.0,25.0,-100.00,NW,304,4.0,11.0,73,0.00,,,0.00,0.000000,,2013-10-25 04:04:00,
2013-10-25 00:44:00,34.0,27.0,-100.00,WNW,303,4.0,11.0,74,0.00,,,0.00,0.000000,,2013-10-25 04:44:00,
2013-10-25 00:54:00,34.0,27.0,-100.00,WNW,303,4.0,11.0,74,0.00,,,0.00,0.000000,,2013-10-25 04:54:00,
2013-10-25 01:03:00,34.0,27.0,-100.00,WNW,303,4.0,11.0,74,0.00,,,0.00,0.000000,,2013-10-25 05:03:00,
2013-10-25 01:42:00,33.0,27.0,-100.00,WNW,287,5.0,11.0,78,0.00,,,0.00,0.000000,,2013-10-25 05:42:00,
2013-10-25 01:51:00,33.0,27.0,-100.00,WNW,287,5.0,11.0,78,0.00,,,0.00,0.000000,,2013-10-25 05:51:00,
2013-10-25 02:01:00,33.0,27.0,-100.00,WNW,287,5.0,11.0,78,0.00,,,0.00,0.000000,,2013-10-25 06:01:00,
2013-10-25 02:41:00,33.0,27.0,-100.00,WNW,290,5.0,11.0,79,0.00,,,0.00,0.000000,,2013-10-25 06:41:00,
2013-10-25 02:51:00,33.0,27.0,-100.00,WNW,290,5.0,11.0,79,0.00,,,0.00,0.000000,,2013-10-25 06:51:00,
2013-10-25 03:01:00,33.0,27.0,-100.00,WNW,290,5.0,11.0,79,0.00,,,0.00,0.000000,,2013-10-25 07:01:00,
2013-10-25 03:41:00,33.0,28.0,-100.00,WNW,293,4.0,12.0,81,0.00,,,0.00,0.000000,,2013-10-25 07:41:00,
2013-10-25 03:51:00,33.0,28.0,-100.00,WNW,293,4.0,12.0,81,0.00,,,0.00,0.000000,,2013-10-25 07:51:00,
2013-10-25 04:01:00,33.0,28.0,-100.00,WNW,293,4.0,12.0,81,0.00,,,0.00,0.000000,,2013-10-25 08:01:00,
2013-10-25 04:41:00,33.0,29.0,-100.00,WNW,289,5.0,10.0,84,0.00,,,0.00,0.000000,,2013-10-25 08:41:00,
2013-10-25 04:51:00,33.0,29.0,-100.00,WNW,289,5.0,10.0,84,0.00,,,0.00,0.000000,,2013-10-25 08:51:00,
2013-10-25 05:01:00,33.0,29.0,-100.00,WNW,289,5.0,10.0,84,0.00,,,0.00,0.000000,,2013-10-25 09:01:00,
2013-10-25 05:42:00,33.0,29.0,-100.00,WNW,299,4.0,11.0,84,0.00,,,0.00,0.000000,,2013-10-25 09:42:00,
2013-10-25 05:52:00,33.0,29.0,-100.00,WNW,299,4.0,11.0,84,0.00,,,0.00,0.000000,,2013-10-25 09:52:00,
2013-10-25 06:01:00,33.0,29.0,-100.00,WNW,299,4.0,11.0,84,0.00,,,0.00,0.000000,,2013-10-25 10:01:00,
2013-10-25 06:41:00,33.0,29.0,-100.00,WNW,298,4.0,9.0,85,0.00,,,0.00,0.000000,,2013-10-25 10:41:00,
2013-10-25 06:52:00,33.0,29.0,-100.00,WNW,298,4.0,9.0,85,0.00,,,0.00,0.000000,,2013-10-25 10:52:00,
2013-10-25 07:02:00,33.0,29.0,-100.00,WNW,298,4.0,9.0,85,0.00,,,0.00,0.000000,,2013-10-25 11:02:00,
2013-10-25 07:41:00,34.0,30.0,-100.00,WNW,299,4.0,9.0,85,0.00,,,0.00,0.000000,,2013-10-25 11:41:00,
2013-10-25 07:51:00,34.0,30.0,-100.00,WNW,299,4.0,9.0,85,0.00,,,0.00,0.000000,,2013-10-25 11:51:00,
2013-10-25 08:01:00,34.0,30.0,-100.00,WNW,299,4.0,9.0,85,0.00,,,0.00,0.000000,,2013-10-25 12:01:00,
2013-10-25 08:41:00,35.0,31.0,-100.00,WNW,295,4.0,9.0,84,0.00,,,0.00,7.000000,,2013-10-25 12:41:00,
2013-10-25 08:51:00,35.0,31.0,-100.00,WNW,295,4.0,9.0,84,0.00,,,0.00,7.000000,,2013-10-25 12:51:00,
2013-10-25 09:02:00,35.0,31.0,-100.00,WNW,295,4.0,9.0,84,0.00,,,0.00,7.000000,,2013-10-25 13:02:00,
2013-10-25 09:42:00,37.0,32.0,-100.00,NW,305,5.0,12.0,81,0.00,,,0.00,62.000000,,2013-10-25 13:42:00,
2013-10-25 09:52:00,37.0,32.0,-100.00,NW,305,5.0,12.0,81,0.00,,,0.00,62.000000,,2013-10-25 13:52:00,
2013-10-25 10:02:00,37.0,32.0,-100.00,NW,305,5.0,12.0,81,0.00,,,0.00,62.000000,,2013-10-25 14:02:00,
2013-10-25 10:42:00,37.0,31.0,-100.00,WNW,296,6.0,16.0,79,0.00,,,0.00,96.000000,,2013-10-25 14:42:00,
2013-10-25 10:52:00,37.0,31.0,-100.00,WNW,296,6.0,16.0,79,0.00,,,0.00,96.000000,,2013-10-25 14:52:00,
2013-10-25 11:01:00,37.0,31.0,-100.00,WNW,296,6.0,16.0,79,0.00,,,0.00,96.000000,,2013-10-25 15:01:00,
2013-10-25 11:43:00,40.0,32.0,-100.00,WNW,288,6.0,13.0,73,0.00,,,0.00,222.000000,,2013-10-25 15:43:00,
2013-10-25 11:53:00,40.0,32.0,-100.00,WNW,288,6.0,13.0,73,0.00,,,0.00,222.000000,,2013-10-25 15:53:00,
2013-10-25 12:03:00,40.0,32.0,-100.00,WNW,288,6.0,13.0,73,0.00,,,0.00,222.000000,,2013-10-25 16:03:00,
2013-10-25 12:43:00,42.0,34.0,-100.00,West,281,6.0,12.0,72,0.00,,,0.00,210.000000,,2013-10-25 16:43:00,
2013-10-25 12:53:00,42.0,34.0,-100.00,West,281,6.0,12.0,72,0.00,,,0.00,210.000000,,2013-10-25 16:53:00,
2013-10-25 13:03:00,42.0,34.0,-100.00,West,281,6.0,12.0,72,0.00,,,0.00,210.000000,,2013-10-25 17:03:00,
2013-10-25 13:43:00,41.0,31.0,-100.00,WNW,289,5.0,14.0,67,0.00,,,0.00,223.000000,,2013-10-25 17:43:00,
2013-10-25 13:52:00,41.0,31.0,-100.00,WNW,289,5.0,14.0,67,0.00,,,0.00,223.000000,,2013-10-25 17:52:00,
2013-10-25 14:02:00,41.0,31.0,-100.00,WNW,289,5.0,14.0,67,0.00,,,0.00,223.000000,,2013-10-25 18:02:00,
2013-10-25 14:42:00,45.0,34.0,-100.00,WNW,289,8.0,15.0,66,0.00,,,0.00,304.000000,,2013-10-25 18:42:00,
2013-10-25 14:52:00,45.0,34.0,-100.00,WNW,289,8.0,15.0,66,0.00,,,0.00,304.000000,,2013-10-25 18:52:00,
2013-10-25 15:02:00,45.0,34.0,-100.00,WNW,289,8.0,15.0,66,0.00,,,0.00,304.000000,,2013-10-25 19:02:00,
2013-10-25 15:42:00,48.0,31.0,-100.00,NW,308,6.0,15.0,51,0.00,,,0.00,540.000000,,2013-10-25 19:42:00,
2013-10-25 15:52:00,48.0,31.0,-100.00,NW,308,6.0,15.0,51,0.00,,,0.00,540.000000,,2013-10-25 19:52:00,
2013-10-25 16:02:00,48.0,31.0,-100.00,NW,308,6.0,15.0,51,0.00,,,0.00,540.000000,,2013-10-25 20:02:00,
2013-10-25 16:42:00,45.0,27.0,-100.00,WNW,286,4.0,12.0,49,0.00,,,0.00,167.000000,,2013-10-25 20:42:00,
2013-10-25 16:52:00,45.0,27.0,-100.00,WNW,286,4.0,12.0,49,0.00,,,0.00,167.000000,,2013-10-25 20:52:00,
2013-10-25 17:02:00,45.0,27.0,-100.00,WNW,286,4.0,12.0,49,0.00,,,0.00,167.000000,,2013-10-25 21:02:00,
2013-10-25 17:43:00,45.0,29.0,-100.00,WNW,282,3.0,8.0,53,0.00,,,0.00,58.000000,,2013-10-25 21:43:00,
2013-10-25 17:54:00,45.0,29.0,-100.00,WNW,282,3.0,8.0,53,0.00,,,0.00,58.000000,,2013-10-25 21:54:00,
2013-10-25 18:04:00,45.0,29.0,-100.00,WNW,282,3.0,8.0,53,0.00,,,0.00,58.000000,,2013-10-25 22:04:00,
2013-10-25 18:42:00,43.0,27.0,-100.00,WNW,293,3.0,7.0,52,0.00,,,0.00,28.000000,,2013-10-25 22:42:00,
2013-10-25 18:53:00,43.0,27.0,-100.00,WNW,293,3.0,7.0,52,0.00,,,0.00,28.000000,,2013-10-25 22:53:00,
2013-10-25 19:03:00,43.0,27.0,-100.00,WNW,293,3.0,7.0,52,0.00,,,0.00,28.000000,,2013-10-25 23:03:00,
2013-10-25 19:42:00,38.0,25.0,-100.00,WNW,298,3.0,8.0,58,0.00,,,0.00,1.000000,,2013-10-25 23:42:00,
2013-10-25 19:53:00,38.0,25.0,-100.00,WNW,298,3.0,8.0,58,0.00,,,0.00,1.000000,,2013-10-25 23:53:00,
2013-10-25 20:02:00,38.0,25.0,-100.00,WNW,298,3.0,8.0,58,0.00,,,0.00,1.000000,,2013-10-26 00:02:00,
2013-10-25 20:42:00,36.0,23.0,-100.00,WNW,296,3.0,6.0,60,0.00,,,0.00,0.000000,,2013-10-26 00:42:00,
2013-10-25 20:52:00,36.0,23.0,-100.00,WNW,296,3.0,6.0,60,0.00,,,0.00,0.000000,,2013-10-26 00:52:00,
2013-10-25 21:01:00,36.0,23.0,-100.00,WNW,296,3.0,6.0,60,0.00,,,0.00,0.000000,,2013-10-26 01:01:00,
2013-10-25 21:42:00,36.0,23.0,-100.00,NW,305,4.0,7.0,60,0.00,,,0.00,0.000000,,2013-10-26 01:42:00,
2013-10-25 21:52:00,36.0,23.0,-100.00,NW,305,4.0,7.0,60,0.00,,,0.00,0.000000,,2013-10-26 01:52:00,
2013-10-25 22:02:00,36.0,23.0,-100.00,NW,305,4.0,7.0,60,0.00,,,0.00,0.000000,,2013-10-26 02:02:00,
2013-10-25 22:43:00,34.0,23.0,-100.00,North,352,2.0,5.0,65,0.00,,,0.00,0.000000,,2013-10-26 02:43:00,
2013-10-25 22:52:00,34.0,23.0,-100.00,North,352,2.0,5.0,65,0.00,,,0.00,0.000000,,2013-10-26 02:52:00,
2013-10-25 23:02:00,34.0,23.0,-100.00,North,352,2.0,5.0,65,0.00,,,0.00,0.000000,,2013-10-26 03:02:00,
2013-10-25 23:45:00,32.0,24.0,-100.00,NW,305,0.0,2.0,71,0.00,,,0.00,0.000000,,2013-10-26 03:45:00,
2013-10-25 23:54:00,32.0,24.0,-100.00,NW,305,0.0,2.0,71,0.00,,,0.00,0.000000,,2013-10-26 03:54:00,